Pagina principale
METAR-TAF:

METAR-TAF

Aeroporti :

Aeroporto di Guernsey

Guernsey,

latitudine: 49-26N, longitudine: 002-36W, altezza: 102 m

Osservazione

Il bollettino è stato emesso 1 ora e 5 minuti fa, alle 21:50 UTC
Vento 5 kt da sud/sud-ovest
Temperature 13°C
Umidità 94%
Pressione 1020 hPa
Visibilità 10 km o più
Poco nuvoloso ad un'altezza di 3000 ft
Nuvoloso ad un'altezza di 4500 ft

METAR: EGJB 162150Z 21005KT 9999 FEW030 BKN045 13/12 Q1020

Ora: 23:55 (22:55 UTC)

Previsione

Il bollettino è stato emesso 2 ore e 56 minuti fa, alle 19:59 UTC
Previsione valida dal 16 alle 21 UTC al 17 alle 06 UTC
Vento 8 kt da sud-ovest
Visibilità 10 km o più
Poco nuvoloso ad un'altezza di 2000 ft
Nuvoloso ad un'altezza di 4000 ft

TAF: EGJB 161959Z 1621/1706 22008KT 9999 FEW020 BKN040

Osservazioni e previsioni meteorologiche di più di 4000 aeroporti (messaggi METAR e TAF).

Le stazioni disponibili sono rappresentate dai dischi gialli e rossi sulla carta.

Puntare il mouse per vedere il nome della stazione.

Clicca sopra per visualizzare le osservazioni e previsioni meteorologiche.

Per cambiare la mappa : fare clic sui pulsanti verdi con una croce nera per ingrandire, il pulsante verde con un trattino per diminuire, o sulla freccia verde per le mappe adiacenti.


METAR-TAF: